createdAt,value
2018-12-07T00:00:48.615Z,31.00
2018-12-07T00:01:48.593Z,24.00
2018-12-07T00:02:48.584Z,25.20
2018-12-07T00:03:48.573Z,23.50
2018-12-07T00:04:48.562Z,25.00
2018-12-07T00:05:48.560Z,31.40
2018-12-07T00:06:48.538Z,33.80
2018-12-07T00:07:48.531Z,24.80
2018-12-07T00:08:48.523Z,24.30
2018-12-07T00:09:48.508Z,20.20
2018-12-07T00:10:48.508Z,25.50
2018-12-07T00:11:48.486Z,26.60
2018-12-07T00:12:48.479Z,23.60
2018-12-07T00:13:48.514Z,20.10
2018-12-07T00:14:48.453Z,20.00
2018-12-07T00:15:48.474Z,27.40
2018-12-07T00:16:48.431Z,28.40
2018-12-07T00:17:48.421Z,20.10
2018-12-07T00:18:48.413Z,17.90
2018-12-07T00:19:48.408Z,18.60
2018-12-07T00:20:48.390Z,19.00
2018-12-07T00:21:48.393Z,17.80
2018-12-07T00:22:48.368Z,18.70
2018-12-07T00:23:48.356Z,19.10
2018-12-07T00:24:48.347Z,18.80
2018-12-07T00:25:48.339Z,19.60
2018-12-07T00:26:48.335Z,19.80
2018-12-07T00:27:48.314Z,18.10
2018-12-07T00:28:48.306Z,20.60
2018-12-07T00:29:48.293Z,18.80
2018-12-07T00:30:48.283Z,18.60
2018-12-07T00:31:48.287Z,19.80
2018-12-07T00:32:48.262Z,19.10
2018-12-07T00:33:48.253Z,19.00
2018-12-07T00:34:48.243Z,18.70
2018-12-07T00:35:48.227Z,18.40
2018-12-07T00:36:48.234Z,18.20
2018-12-07T00:37:48.208Z,20.50
2018-12-07T00:38:48.199Z,17.80
2018-12-07T00:39:48.187Z,18.40
2018-12-07T00:40:48.175Z,18.20
2018-12-07T00:41:48.262Z,19.10
2018-12-07T00:42:48.163Z,18.20
2018-12-07T00:43:48.148Z,20.40
2018-12-07T00:44:48.425Z,20.20
2018-12-07T00:45:48.124Z,21.00
2018-12-07T00:46:48.131Z,17.00
2018-12-07T00:47:48.108Z,19.10
2018-12-07T00:48:48.090Z,19.40
2018-12-07T00:49:48.094Z,18.80
2018-12-07T00:50:48.073Z,18.30
2018-12-07T00:51:48.072Z,20.50
2018-12-07T00:52:48.047Z,19.10
2018-12-07T00:53:48.037Z,18.90
2018-12-07T00:54:48.028Z,18.50
2018-12-07T00:55:48.017Z,18.70
2018-12-07T00:56:48.017Z,19.00
2018-12-07T00:57:47.995Z,17.80
2018-12-07T00:58:47.983Z,18.40
2018-12-07T00:59:47.979Z,19.30
2018-12-07T01:00:47.964Z,17.90
2018-12-07T01:01:47.951Z,16.80
2018-12-07T01:02:47.953Z,18.10
2018-12-07T01:03:47.931Z,17.60
2018-12-07T01:04:47.918Z,18.90
2018-12-07T01:05:47.910Z,18.30
2018-12-07T01:06:47.898Z,17.20
2018-12-07T01:07:47.902Z,17.20
2018-12-07T01:08:47.878Z,18.10
2018-12-07T01:09:47.867Z,17.00
2018-12-07T01:10:47.860Z,16.70
2018-12-07T01:11:47.846Z,18.10
2018-12-07T01:12:47.844Z,16.90
2018-12-07T01:13:47.824Z,16.20
2018-12-07T01:14:47.816Z,16.50
2018-12-07T01:15:47.804Z,18.20
2018-12-07T01:16:47.791Z,17.20
2018-12-07T01:17:47.794Z,16.20
2018-12-07T01:18:47.772Z,16.40
2018-12-07T01:19:47.758Z,16.90
2018-12-07T01:20:47.748Z,15.70
2018-12-07T01:21:47.736Z,18.20
2018-12-07T01:22:47.739Z,16.40
2018-12-07T01:23:47.715Z,16.90
2018-12-07T01:24:47.703Z,17.00
2018-12-07T01:25:47.693Z,17.90
2018-12-07T01:26:47.688Z,15.20
2018-12-07T01:27:47.685Z,15.90
2018-12-07T01:28:47.662Z,17.40
2018-12-07T01:29:47.654Z,15.90
2018-12-07T01:30:47.642Z,15.60
2018-12-07T01:31:47.632Z,17.50
2018-12-07T01:32:47.630Z,16.00
2018-12-07T01:33:47.609Z,15.40
2018-12-07T01:34:47.598Z,16.00
2018-12-07T01:35:47.589Z,16.00
2018-12-07T01:36:47.579Z,15.50
2018-12-07T01:37:47.577Z,17.80
2018-12-07T01:38:47.565Z,14.80
2018-12-07T01:39:47.545Z,14.80
2018-12-07T01:40:47.531Z,16.30
2018-12-07T01:41:47.523Z,14.80
2018-12-07T01:42:47.522Z,14.60
2018-12-07T01:43:47.501Z,16.00
2018-12-07T01:44:47.491Z,16.20
2018-12-07T01:45:47.480Z,16.00
2018-12-07T01:46:47.466Z,15.10
2018-12-07T01:47:47.468Z,17.30
2018-12-07T01:48:47.446Z,15.90
2018-12-07T01:49:47.440Z,14.80
2018-12-07T01:50:47.425Z,15.90
2018-12-07T01:51:47.414Z,14.90
2018-12-07T01:52:47.438Z,16.10
2018-12-07T01:53:47.394Z,15.50
2018-12-07T01:54:47.382Z,15.90
2018-12-07T01:55:47.371Z,17.00
2018-12-07T01:56:47.360Z,16.70
2018-12-07T01:57:47.348Z,15.80
2018-12-07T01:58:47.351Z,14.70
2018-12-07T01:59:47.333Z,16.70
2018-12-07T02:00:47.318Z,14.80
2018-12-07T02:01:47.309Z,17.80
2018-12-07T02:02:47.297Z,15.50
2018-12-07T02:03:47.298Z,16.00
2018-12-07T02:04:47.273Z,16.50
2018-12-07T02:05:47.264Z,16.60
2018-12-07T02:06:47.252Z,14.50
2018-12-07T02:07:47.243Z,16.60
2018-12-07T02:08:47.240Z,16.40
2018-12-07T02:09:47.220Z,17.60
2018-12-07T02:10:47.210Z,15.80
2018-12-07T02:11:47.200Z,16.40
2018-12-07T02:12:47.187Z,16.70
2018-12-07T02:13:47.191Z,15.70
2018-12-07T02:14:47.166Z,16.90
2018-12-07T02:15:47.152Z,15.40
2018-12-07T02:16:47.144Z,15.30
2018-12-07T02:17:47.132Z,15.50
2018-12-07T02:18:47.135Z,17.30
2018-12-07T02:19:47.112Z,16.10
2018-12-07T02:20:47.101Z,16.10
2018-12-07T02:21:47.089Z,17.50
2018-12-07T02:22:47.082Z,15.90
2018-12-07T02:23:47.086Z,15.60
2018-12-07T02:24:47.056Z,14.80
2018-12-07T02:25:47.045Z,15.60
2018-12-07T02:26:47.036Z,15.10
2018-12-07T02:27:47.033Z,17.60
2018-12-07T02:28:47.027Z,15.60
2018-12-07T02:29:47.004Z,14.50
2018-12-07T02:30:46.992Z,15.30
2018-12-07T02:31:46.980Z,15.40
2018-12-07T02:32:46.971Z,16.70
2018-12-07T02:33:46.993Z,14.40
2018-12-07T02:34:46.957Z,15.00
2018-12-07T02:35:46.939Z,17.50
2018-12-07T02:36:46.927Z,15.80
2018-12-07T02:37:46.915Z,15.50
2018-12-07T02:38:46.907Z,15.30
2018-12-07T02:39:46.910Z,18.50
2018-12-07T02:40:46.891Z,15.40
2018-12-07T02:41:46.875Z,14.20
2018-12-07T02:42:47.582Z,14.90
2018-12-07T02:43:46.851Z,15.70
2018-12-07T02:44:46.852Z,15.20
2018-12-07T02:45:46.832Z,14.00
2018-12-07T02:46:46.817Z,16.20
2018-12-07T02:47:46.805Z,16.80
2018-12-07T02:48:46.797Z,15.50
2018-12-07T02:49:46.799Z,18.40
2018-12-07T02:50:46.776Z,18.90
2018-12-07T02:51:46.765Z,16.90
2018-12-07T02:52:46.754Z,16.50
2018-12-07T02:53:46.743Z,18.80
2018-12-07T02:54:46.743Z,16.90
2018-12-07T02:55:46.721Z,17.20
2018-12-07T02:56:46.711Z,17.80
2018-12-07T02:57:46.698Z,16.50
2018-12-07T02:58:46.699Z,16.80
2018-12-07T02:59:46.696Z,18.50
2018-12-07T03:00:46.666Z,17.40
2018-12-07T03:01:46.661Z,18.00
2018-12-07T03:02:46.647Z,18.50
2018-12-07T03:03:46.639Z,19.70
2018-12-07T03:04:46.822Z,19.70
2018-12-07T03:05:46.618Z,18.10
2018-12-07T03:06:46.604Z,18.40
2018-12-07T03:07:46.591Z,17.70
2018-12-07T03:08:46.582Z,19.50
2018-12-07T03:09:46.569Z,21.30
2018-12-07T03:10:46.568Z,19.00
2018-12-07T03:11:46.545Z,19.30
2018-12-07T03:12:46.539Z,19.90
2018-12-07T03:13:46.527Z,21.70
2018-12-07T03:14:46.517Z,20.20
2018-12-07T03:15:46.513Z,20.10
2018-12-07T03:16:46.492Z,21.10
2018-12-07T03:17:46.480Z,18.90
2018-12-07T03:18:46.475Z,20.70
2018-12-07T03:19:46.461Z,19.80
2018-12-07T03:20:46.458Z,22.30
2018-12-07T03:21:46.441Z,20.50
2018-12-07T03:22:46.429Z,21.40
2018-12-07T03:23:46.415Z,23.80
2018-12-07T03:24:46.410Z,21.00
2018-12-07T03:25:46.407Z,21.40
2018-12-07T03:26:46.383Z,21.70
2018-12-07T03:27:46.372Z,21.50
2018-12-07T03:28:46.360Z,24.40
2018-12-07T03:29:46.350Z,22.70
2018-12-07T03:30:46.356Z,22.80
2018-12-07T03:31:46.331Z,26.40
2018-12-07T03:32:46.319Z,26.40
2018-12-07T03:33:46.314Z,25.50
2018-12-07T03:34:46.301Z,25.10
2018-12-07T03:35:46.300Z,24.00
2018-12-07T03:36:46.278Z,23.20
2018-12-07T03:37:46.266Z,25.30
2018-12-07T03:38:46.253Z,24.60
2018-12-07T03:39:46.248Z,23.60
2018-12-07T03:40:46.247Z,26.90
2018-12-07T03:41:46.227Z,23.20
2018-12-07T03:42:46.211Z,26.10
2018-12-07T03:43:46.204Z,25.80
2018-12-07T03:44:46.190Z,25.50
2018-12-07T03:45:46.181Z,27.10
2018-12-07T03:46:46.184Z,27.60
2018-12-07T03:47:46.159Z,27.00
2018-12-07T03:48:46.151Z,25.00
2018-12-07T03:49:46.137Z,25.80
2018-12-07T03:50:46.122Z,28.10
2018-12-07T03:51:46.127Z,31.20
2018-12-07T03:52:46.104Z,25.40
2018-12-07T03:53:46.092Z,26.20
2018-12-07T03:54:46.083Z,27.10
2018-12-07T03:55:46.072Z,28.80
2018-12-07T03:56:46.070Z,26.50
2018-12-07T03:57:46.072Z,24.90
2018-12-07T03:58:46.038Z,25.60
2018-12-07T03:59:46.025Z,25.50
2018-12-07T04:00:46.017Z,25.20
2018-12-07T04:01:46.017Z,28.10
2018-12-07T04:02:45.997Z,28.40
2018-12-07T04:03:45.984Z,27.60
2018-12-07T04:04:45.972Z,24.40
2018-12-07T04:05:45.961Z,25.80
2018-12-07T04:06:45.962Z,26.50
2018-12-07T04:07:45.942Z,28.10
2018-12-07T04:08:45.931Z,25.60
2018-12-07T04:09:45.923Z,26.90
2018-12-07T04:10:45.911Z,25.20
2018-12-07T04:11:45.908Z,22.50
2018-12-07T04:12:45.887Z,24.70
2018-12-07T04:13:45.873Z,26.30
2018-12-07T04:14:45.863Z,28.90
2018-12-07T04:15:45.854Z,24.30
2018-12-07T04:16:45.880Z,25.60
2018-12-07T04:17:45.837Z,26.40
2018-12-07T04:18:45.820Z,27.60
2018-12-07T04:19:45.809Z,25.60
2018-12-07T04:20:45.805Z,25.30
2018-12-07T04:21:45.824Z,27.50
2018-12-07T04:22:45.780Z,28.10
2018-12-07T04:23:45.771Z,28.10
2018-12-07T04:24:45.758Z,26.80
2018-12-07T04:25:45.746Z,26.00
2018-12-07T04:26:45.739Z,26.00
2018-12-07T04:27:45.735Z,30.00
2018-12-07T04:28:45.711Z,24.70
2018-12-07T04:29:45.708Z,27.50
2018-12-07T04:30:45.693Z,24.60
2018-12-07T04:31:45.680Z,26.70
2018-12-07T04:32:45.710Z,25.50
2018-12-07T04:33:45.661Z,29.50
2018-12-07T04:34:45.646Z,26.80
2018-12-07T04:35:45.637Z,27.00
2018-12-07T04:36:45.628Z,27.30
2018-12-07T04:37:45.637Z,27.30
2018-12-07T04:38:45.605Z,27.80
2018-12-07T04:39:45.595Z,30.00
2018-12-07T04:40:45.593Z,29.10
2018-12-07T04:41:45.575Z,33.30
2018-12-07T04:42:45.580Z,30.10
2018-12-07T04:43:45.549Z,29.20
2018-12-07T04:44:45.539Z,27.70
2018-12-07T04:45:45.526Z,31.00
2018-12-07T04:46:45.517Z,29.10
2018-12-07T04:47:45.522Z,30.70
2018-12-07T04:48:45.506Z,28.80
2018-12-07T04:49:45.486Z,29.90
2018-12-07T04:50:45.487Z,32.00
2018-12-07T04:51:45.465Z,29.80
2018-12-07T04:52:45.470Z,29.10
2018-12-07T04:53:45.449Z,29.80
2018-12-07T04:54:45.434Z,29.20
2018-12-07T04:55:45.430Z,31.10
2018-12-07T04:56:45.410Z,29.70
2018-12-07T04:57:45.439Z,28.00
2018-12-07T04:58:45.388Z,31.20
2018-12-07T04:59:45.375Z,30.50
2018-12-07T05:00:45.367Z,34.20
2018-12-07T05:01:45.355Z,31.90
2018-12-07T05:02:45.343Z,33.80
2018-12-07T05:03:45.355Z,29.80
2018-12-07T05:04:45.321Z,33.00
2018-12-07T05:05:45.342Z,31.50
2018-12-07T05:06:45.316Z,34.50
2018-12-07T05:07:45.289Z,33.10
2018-12-07T05:08:45.294Z,34.10
2018-12-07T05:09:45.268Z,34.70
2018-12-07T05:10:45.260Z,31.00
2018-12-07T05:11:45.257Z,34.30
2018-12-07T05:12:45.235Z,33.50
2018-12-07T05:13:45.239Z,33.90
2018-12-07T05:14:45.225Z,34.20
2018-12-07T05:15:45.209Z,32.50
2018-12-07T05:16:45.194Z,31.60
2018-12-07T05:17:45.183Z,30.70
2018-12-07T05:18:45.182Z,30.20
2018-12-07T05:19:45.161Z,32.40
2018-12-07T05:20:45.153Z,33.60
2018-12-07T05:21:45.142Z,33.80
2018-12-07T05:22:45.130Z,32.20
2018-12-07T05:23:45.128Z,34.50
2018-12-07T05:24:45.114Z,33.40
2018-12-07T05:25:45.096Z,33.60
2018-12-07T05:26:45.086Z,36.00
2018-12-07T05:27:45.075Z,35.80
2018-12-07T05:28:45.104Z,35.70
2018-12-07T05:29:45.059Z,32.50
2018-12-07T05:30:45.050Z,33.90
2018-12-07T05:31:45.049Z,35.40
2018-12-07T05:32:45.021Z,34.40
2018-12-07T05:33:45.022Z,31.10
2018-12-07T05:34:45.015Z,34.10
2018-12-07T05:35:44.990Z,34.20
2018-12-07T05:36:44.978Z,32.80
2018-12-07T05:37:44.966Z,31.70
2018-12-07T05:38:44.969Z,33.90
2018-12-07T05:39:44.957Z,31.70
2018-12-07T05:40:44.932Z,33.00
2018-12-07T05:41:44.939Z,33.90
2018-12-07T05:42:44.914Z,33.20
2018-12-07T05:43:44.899Z,33.00
2018-12-07T05:44:44.903Z,30.50
2018-12-07T05:45:44.881Z,30.20
2018-12-07T05:46:44.884Z,31.60
2018-12-07T05:47:44.860Z,29.50
2018-12-07T05:48:44.847Z,30.90
2018-12-07T05:49:44.851Z,29.20
2018-12-07T05:50:44.827Z,30.50
2018-12-07T05:51:44.827Z,32.70
2018-12-07T05:52:44.805Z,31.80
2018-12-07T05:53:44.799Z,31.60
2018-12-07T05:54:44.793Z,30.00
2018-12-07T05:55:44.774Z,28.80
2018-12-07T05:56:44.769Z,31.50
2018-12-07T05:57:44.751Z,30.00
2018-12-07T05:58:44.758Z,31.10
2018-12-07T05:59:44.741Z,28.40
2018-12-07T06:00:44.720Z,31.70
2018-12-07T06:01:44.714Z,30.70
2018-12-07T06:02:44.698Z,28.90
2018-12-07T06:03:44.686Z,31.20
2018-12-07T06:04:44.673Z,29.10
2018-12-07T06:05:44.676Z,25.70
2018-12-07T06:06:44.655Z,27.50
2018-12-07T06:07:44.654Z,31.00
2018-12-07T06:08:44.631Z,29.00
2018-12-07T06:09:44.622Z,28.30
2018-12-07T06:10:44.623Z,28.20
2018-12-07T06:11:44.601Z,28.10
2018-12-07T06:12:44.599Z,31.40
2018-12-07T06:13:44.590Z,29.70
2018-12-07T06:14:44.572Z,38.70
2018-12-07T06:15:44.570Z,32.80
2018-12-07T06:16:44.553Z,29.30
2018-12-07T06:17:44.622Z,27.10
2018-12-07T06:18:44.531Z,28.10
2018-12-07T06:19:44.514Z,27.30
2018-12-07T06:20:44.532Z,27.80
2018-12-07T06:21:44.491Z,27.50
2018-12-07T06:22:44.506Z,26.00
2018-12-07T06:23:44.470Z,27.10
2018-12-07T06:24:44.478Z,25.50
2018-12-07T06:25:44.485Z,29.10
2018-12-07T06:26:44.440Z,26.00
2018-12-07T06:27:44.425Z,26.60
2018-12-07T06:28:44.416Z,25.30
2018-12-07T06:29:44.407Z,24.40
2018-12-07T06:30:44.417Z,26.70
2018-12-07T06:31:44.413Z,26.80
2018-12-07T06:32:44.390Z,28.80
2018-12-07T06:33:44.362Z,28.10
2018-12-07T06:34:44.351Z,27.00
2018-12-07T06:35:44.340Z,30.60
2018-12-07T06:36:44.343Z,28.60
2018-12-07T06:37:44.329Z,28.20
2018-12-07T06:38:44.321Z,28.80
2018-12-07T06:39:44.309Z,28.10
2018-12-07T06:40:44.293Z,32.30
2018-12-07T06:41:44.293Z,27.80
2018-12-07T06:42:44.266Z,27.30
2018-12-07T06:43:44.257Z,31.60
2018-12-07T06:44:44.243Z,28.60
2018-12-07T06:45:44.233Z,27.90
2018-12-07T06:46:44.233Z,28.20
2018-12-07T06:47:44.210Z,27.10
2018-12-07T06:48:44.200Z,26.90
2018-12-07T06:49:44.193Z,26.70
2018-12-07T06:50:44.180Z,27.40
2018-12-07T06:51:44.177Z,26.10
2018-12-07T06:52:44.161Z,26.80
2018-12-07T06:53:44.150Z,29.70
2018-12-07T06:54:44.143Z,27.30
2018-12-07T06:55:44.124Z,29.60
2018-12-07T06:56:44.125Z,28.10
2018-12-07T06:57:44.109Z,26.60
2018-12-07T06:58:44.095Z,30.50
2018-12-07T06:59:44.083Z,25.20
2018-12-07T07:00:44.070Z,26.20
2018-12-07T07:01:44.106Z,25.10
2018-12-07T07:02:44.051Z,25.70
2018-12-07T07:03:44.042Z,25.60
2018-12-07T07:04:44.042Z,28.00
2018-12-07T07:05:44.025Z,26.90
2018-12-07T07:06:44.018Z,25.60
2018-12-07T07:07:44.013Z,25.00
2018-12-07T07:08:43.985Z,24.80
2018-12-07T07:09:43.973Z,24.60
2018-12-07T07:10:43.963Z,25.60
2018-12-07T07:11:43.961Z,26.10
2018-12-07T07:12:43.955Z,26.30
2018-12-07T07:13:43.953Z,25.50
2018-12-07T07:14:43.928Z,24.00
2018-12-07T07:15:43.912Z,28.10
2018-12-07T07:16:43.900Z,25.80
2018-12-07T07:17:43.912Z,26.60
2018-12-07T07:18:43.877Z,25.00
2018-12-07T07:19:43.871Z,25.50
2018-12-07T07:20:43.867Z,24.70
2018-12-07T07:21:43.853Z,27.00
2018-12-07T07:22:43.846Z,26.40
2018-12-07T07:23:44.945Z,25.70
2018-12-07T07:24:43.816Z,26.60
2018-12-07T07:25:43.813Z,24.20
2018-12-07T07:26:44.602Z,24.40
2018-12-07T07:27:43.797Z,23.10
2018-12-07T07:28:43.914Z,24.10
2018-12-07T07:29:43.760Z,27.40
2018-12-07T07:30:43.765Z,25.10
2018-12-07T07:31:43.863Z,25.50
2018-12-07T07:32:43.737Z,26.10
2018-12-07T07:33:43.718Z,23.60
2018-12-07T07:34:43.707Z,22.70
2018-12-07T07:35:43.700Z,22.90
2018-12-07T07:36:43.684Z,20.40
2018-12-07T07:37:43.705Z,22.40
2018-12-07T07:38:43.664Z,22.70
2018-12-07T07:39:43.652Z,26.20
2018-12-07T07:40:43.648Z,24.60
2018-12-07T07:41:43.635Z,22.70
2018-12-07T07:42:43.620Z,22.70
2018-12-07T07:43:43.622Z,24.90
2018-12-07T07:44:43.602Z,21.10
2018-12-07T07:45:43.588Z,25.90
2018-12-07T07:46:43.578Z,26.80
2018-12-07T07:47:43.572Z,24.10
2018-12-07T07:48:43.576Z,23.80
2018-12-07T07:49:43.544Z,24.20
2018-12-07T07:50:43.534Z,25.10
2018-12-07T07:51:43.525Z,24.00
2018-12-07T07:52:43.514Z,22.30
2018-12-07T07:53:43.517Z,23.90
2018-12-07T07:54:43.551Z,22.70
2018-12-07T07:55:43.481Z,22.20
2018-12-07T07:56:43.473Z,23.40
2018-12-07T07:57:43.461Z,23.20
2018-12-07T07:58:43.463Z,23.40
2018-12-07T07:59:43.437Z,22.50
2018-12-07T08:00:43.428Z,22.20
2018-12-07T08:01:43.416Z,25.20
2018-12-07T08:02:43.420Z,21.40
2018-12-07T08:03:43.405Z,20.90
2018-12-07T08:04:43.382Z,21.00
2018-12-07T08:05:43.374Z,21.00
2018-12-07T08:06:43.361Z,20.30
2018-12-07T08:07:43.357Z,20.00
2018-12-07T08:08:43.356Z,19.00
2018-12-07T08:09:46.153Z,19.80
2018-12-07T08:10:43.320Z,20.60
2018-12-07T08:11:43.310Z,20.90
2018-12-07T08:12:43.300Z,19.70
2018-12-07T08:13:43.306Z,21.00
2018-12-07T08:14:43.276Z,21.60
2018-12-07T08:15:43.267Z,19.50
2018-12-07T08:16:43.254Z,18.00
2018-12-07T08:17:43.247Z,17.20
2018-12-07T08:18:47.118Z,18.80
2018-12-07T08:19:43.241Z,21.00
2018-12-07T08:20:43.222Z,21.40
2018-12-07T08:21:43.206Z,19.80
2018-12-07T08:22:43.195Z,19.10
2018-12-07T08:23:43.190Z,19.70
2018-12-07T08:24:43.169Z,22.70
2018-12-07T08:25:43.160Z,21.00
2018-12-07T08:26:43.148Z,20.10
2018-12-07T08:27:43.148Z,17.90
2018-12-07T08:28:43.134Z,15.80
2018-12-07T08:29:43.113Z,16.50
2018-12-07T08:30:43.104Z,16.70
2018-12-07T08:31:43.107Z,16.40
2018-12-07T08:32:43.091Z,15.50
2018-12-07T08:33:43.094Z,16.10
2018-12-07T08:34:43.062Z,18.60
2018-12-07T08:35:43.068Z,15.30
2018-12-07T08:36:43.656Z,15.30
2018-12-07T08:37:43.096Z,14.50
2018-12-07T08:38:43.057Z,14.80
2018-12-07T08:39:43.011Z,14.60
2018-12-07T08:40:43.017Z,15.20
2018-12-07T08:41:43.111Z,14.60
2018-12-07T08:42:43.152Z,14.30
2018-12-07T08:43:42.977Z,16.10
2018-12-07T08:44:43.071Z,14.50
2018-12-07T08:45:44.137Z,16.40
2018-12-07T08:46:43.081Z,15.70
2018-12-07T08:47:43.631Z,15.10
2018-12-07T08:48:42.963Z,15.60
2018-12-07T08:49:42.939Z,14.10
2018-12-07T08:50:42.967Z,13.00
2018-12-07T08:51:42.918Z,14.40
2018-12-07T08:52:43.043Z,15.30
2018-12-07T08:53:42.862Z,13.70
2018-12-07T08:54:43.454Z,13.30
2018-12-07T08:55:42.929Z,13.00
2018-12-07T08:56:43.052Z,13.00
2018-12-07T08:57:42.831Z,12.20
2018-12-07T08:58:42.870Z,12.40
2018-12-07T08:59:42.811Z,10.40
2018-12-07T09:00:42.787Z,12.80
2018-12-07T09:01:42.785Z,13.50
2018-12-07T09:02:42.763Z,13.70
2018-12-07T09:03:42.754Z,12.70
2018-12-07T09:04:42.751Z,11.70
2018-12-07T09:05:42.729Z,14.10
2018-12-07T09:06:42.719Z,11.90
2018-12-07T09:07:42.709Z,10.40
2018-12-07T09:08:42.702Z,12.30
2018-12-07T09:09:42.703Z,11.80
2018-12-07T09:10:42.681Z,10.90
2018-12-07T09:11:42.665Z,10.50
2018-12-07T09:12:42.661Z,9.90
2018-12-07T09:13:42.648Z,10.20
2018-12-07T09:14:42.650Z,8.20
2018-12-07T09:15:42.623Z,9.50
2018-12-07T09:16:42.615Z,10.40
2018-12-07T09:17:42.604Z,11.00
2018-12-07T09:18:42.596Z,10.10
2018-12-07T09:19:42.627Z,11.00
2018-12-07T09:20:42.569Z,8.70
2018-12-07T09:21:42.560Z,10.20
2018-12-07T09:22:42.550Z,11.30
2018-12-07T09:23:49.382Z,9.90
2018-12-07T09:24:43.557Z,10.00
2018-12-07T09:25:42.523Z,9.80
2018-12-07T09:26:42.505Z,8.50
2018-12-07T09:27:42.502Z,10.10
2018-12-07T09:28:42.494Z,8.60
2018-12-07T09:29:42.471Z,7.10
2018-12-07T09:30:42.476Z,7.70
2018-12-07T09:31:42.459Z,8.40
2018-12-07T09:32:42.440Z,8.20
2018-12-07T09:33:42.430Z,7.80
2018-12-07T09:34:42.419Z,8.50
2018-12-07T09:35:42.421Z,8.30
2018-12-07T09:36:42.399Z,7.80
2018-12-07T09:37:42.389Z,8.40
2018-12-07T09:38:42.375Z,8.60
2018-12-07T09:39:42.365Z,7.90
2018-12-07T09:40:42.365Z,7.40
2018-12-07T09:41:42.344Z,7.70
2018-12-07T09:42:42.334Z,8.40
2018-12-07T09:43:42.321Z,9.10
2018-12-07T09:44:42.315Z,7.40
2018-12-07T09:45:42.312Z,6.70
2018-12-07T09:46:42.289Z,7.80
2018-12-07T09:47:42.280Z,8.70
2018-12-07T09:48:42.272Z,7.90
2018-12-07T09:49:42.259Z,9.00
2018-12-07T09:50:42.261Z,8.10
2018-12-07T09:51:42.235Z,8.40
2018-12-07T09:52:42.225Z,8.10
2018-12-07T09:53:42.226Z,8.30
2018-12-07T09:54:42.213Z,8.70
2018-12-07T09:55:42.202Z,7.60
2018-12-07T09:56:42.195Z,7.70
2018-12-07T09:57:42.174Z,9.40
2018-12-07T09:58:42.160Z,7.70
2018-12-07T09:59:42.153Z,7.70
2018-12-07T10:00:42.167Z,7.10
2018-12-07T10:01:42.132Z,7.70
2018-12-07T10:02:42.125Z,6.80
2018-12-07T10:03:42.107Z,6.90
2018-12-07T10:04:42.098Z,6.40
2018-12-07T10:05:42.086Z,7.30
2018-12-07T10:06:42.114Z,7.30
2018-12-07T10:07:42.064Z,11.20
2018-12-07T10:08:42.053Z,9.30
2018-12-07T10:09:42.047Z,6.10
2018-12-07T10:10:42.034Z,7.10
2018-12-07T10:11:42.048Z,6.00
2018-12-07T10:12:42.010Z,5.10
2018-12-07T10:13:42.002Z,7.40
2018-12-07T10:14:41.989Z,4.80
2018-12-07T10:15:44.763Z,5.50
2018-12-07T10:16:41.982Z,6.80
2018-12-07T10:17:41.967Z,4.80
2018-12-07T10:18:41.957Z,6.20
2018-12-07T10:19:41.935Z,8.70
2018-12-07T10:20:41.925Z,8.00
2018-12-07T10:21:41.940Z,4.70
2018-12-07T10:22:41.903Z,4.40
2018-12-07T10:23:41.894Z,7.80
2018-12-07T10:24:41.880Z,6.20
2018-12-07T10:25:41.885Z,5.60
2018-12-07T10:26:41.888Z,6.00
2018-12-07T10:27:41.848Z,5.00
2018-12-07T10:28:41.855Z,4.60
2018-12-07T10:29:41.826Z,7.20
2018-12-07T10:30:41.825Z,4.30
2018-12-07T10:31:41.826Z,4.70
2018-12-07T10:32:41.808Z,4.00
2018-12-07T10:33:41.874Z,4.80
2018-12-07T10:34:41.776Z,5.80
2018-12-07T10:35:41.779Z,4.70
2018-12-07T10:36:41.751Z,3.80
2018-12-07T10:37:41.750Z,5.70
2018-12-07T10:38:41.729Z,3.80
2018-12-07T10:39:41.719Z,6.00
2018-12-07T10:40:41.717Z,5.10
2018-12-07T10:41:41.698Z,6.70
2018-12-07T10:42:41.707Z,9.30
2018-12-07T10:43:41.673Z,6.00
2018-12-07T10:44:41.667Z,5.50
2018-12-07T10:45:41.652Z,4.90
2018-12-07T10:46:41.645Z,4.60
2018-12-07T10:47:41.642Z,4.80
2018-12-07T10:48:41.639Z,4.20
2018-12-07T10:49:41.609Z,3.40
2018-12-07T10:50:41.600Z,3.70
2018-12-07T10:51:41.589Z,3.40
2018-12-07T10:52:41.590Z,4.00
2018-12-07T10:53:41.565Z,3.10
2018-12-07T10:54:41.556Z,4.70
2018-12-07T10:55:41.544Z,5.00
2018-12-07T10:56:41.533Z,3.50
2018-12-07T10:57:41.537Z,2.50
2018-12-07T10:58:41.522Z,3.70
2018-12-07T10:59:41.536Z,3.40
2018-12-07T11:00:41.494Z,4.40
2018-12-07T11:01:41.479Z,3.50
2018-12-07T11:02:41.501Z,3.80
2018-12-07T11:03:41.465Z,3.00
2018-12-07T11:04:41.460Z,3.10
2018-12-07T11:05:41.435Z,6.00
2018-12-07T11:06:41.425Z,2.80
2018-12-07T11:07:41.417Z,2.50
2018-12-07T11:08:41.419Z,2.20
2018-12-07T11:09:41.396Z,2.60
2018-12-07T11:10:41.392Z,3.80
2018-12-07T11:11:41.382Z,2.70
2018-12-07T11:12:41.361Z,3.80
2018-12-07T11:13:41.365Z,3.10
2018-12-07T11:14:41.369Z,4.30
2018-12-07T11:15:41.366Z,3.50
2018-12-07T11:16:41.318Z,3.40
2018-12-07T11:17:41.329Z,3.00
2018-12-07T11:18:41.304Z,3.80
2018-12-07T11:19:41.284Z,3.80
2018-12-07T11:20:41.272Z,2.80
2018-12-07T11:21:41.263Z,2.90
2018-12-07T11:22:41.251Z,2.30
2018-12-07T11:23:41.262Z,3.70
2018-12-07T11:24:41.238Z,2.80
2018-12-07T11:25:41.222Z,2.40
2018-12-07T11:26:41.208Z,2.50
2018-12-07T11:27:41.204Z,2.20
2018-12-07T11:28:41.207Z,2.50
2018-12-07T11:29:41.178Z,2.30
2018-12-07T11:30:41.162Z,3.00
2018-12-07T11:31:41.152Z,2.40
2018-12-07T11:32:41.145Z,2.90
2018-12-07T11:33:41.185Z,3.40
2018-12-07T11:34:41.131Z,2.80
2018-12-07T11:35:41.110Z,2.40
2018-12-07T11:36:41.101Z,3.00
2018-12-07T11:37:41.094Z,3.00
2018-12-07T11:38:41.076Z,2.10
2018-12-07T11:39:41.090Z,2.50
2018-12-07T11:40:41.053Z,3.30
2018-12-07T11:41:41.045Z,2.70
2018-12-07T11:42:41.033Z,2.60
2018-12-07T11:43:41.023Z,2.00
2018-12-07T11:44:41.023Z,3.50
2018-12-07T11:45:41.001Z,2.20
2018-12-07T11:46:40.994Z,2.80
2018-12-07T11:47:40.997Z,3.30
2018-12-07T11:48:40.969Z,2.00
2018-12-07T11:49:56.195Z,2.00
2018-12-07T11:50:40.961Z,2.20
2018-12-07T11:51:40.941Z,3.50
2018-12-07T11:52:40.925Z,2.30
2018-12-07T11:53:40.912Z,2.40
2018-12-07T11:54:40.915Z,2.80
2018-12-07T11:55:42.765Z,3.00
2018-12-07T11:56:40.881Z,2.60
2018-12-07T11:57:40.869Z,2.30
2018-12-07T11:58:40.856Z,4.30
2018-12-07T11:59:40.883Z,2.70
2018-12-07T12:00:40.840Z,1.80
2018-12-07T12:01:44.715Z,2.70
2018-12-07T12:02:40.817Z,2.90
2018-12-07T12:03:40.803Z,2.80
2018-12-07T12:04:40.792Z,2.10
2018-12-07T12:05:40.794Z,3.50
2018-12-07T12:06:40.774Z,3.40
2018-12-07T12:07:40.763Z,3.30
2018-12-07T12:08:40.750Z,2.60
2018-12-07T12:09:40.738Z,3.10
2018-12-07T12:10:40.772Z,2.40
2018-12-07T12:11:40.719Z,2.40
2018-12-07T12:12:40.709Z,2.60
2018-12-07T12:13:40.695Z,1.80
2018-12-07T12:14:40.686Z,3.20
2018-12-07T12:15:40.684Z,2.40
2018-12-07T12:16:40.665Z,2.90
2018-12-07T12:17:40.653Z,2.60
2018-12-07T12:18:40.646Z,2.70
2018-12-07T12:19:40.633Z,2.60
2018-12-07T12:20:40.632Z,2.70
2018-12-07T12:21:40.610Z,3.10
2018-12-07T12:22:43.261Z,3.40
2018-12-07T12:23:40.589Z,3.20
2018-12-07T12:24:40.577Z,4.20
2018-12-07T12:25:40.582Z,2.90
2018-12-07T12:26:40.557Z,3.20
2018-12-07T12:27:40.544Z,3.10
2018-12-07T12:28:40.532Z,2.90
2018-12-07T12:29:40.529Z,3.60
2018-12-07T12:30:40.546Z,3.20
2018-12-07T12:31:40.505Z,4.50
2018-12-07T12:32:40.495Z,3.40
2018-12-07T12:33:40.480Z,2.90
2018-12-07T12:34:40.472Z,4.10
2018-12-07T12:35:40.463Z,5.30
2018-12-07T12:36:40.475Z,3.90
2018-12-07T12:37:40.440Z,5.00
2018-12-07T12:38:40.429Z,3.80
2018-12-07T12:39:40.416Z,3.80
2018-12-07T12:40:40.402Z,5.00
2018-12-07T12:41:46.792Z,5.40
2018-12-07T12:42:41.383Z,4.70
2018-12-07T12:43:40.372Z,3.10
2018-12-07T12:44:40.361Z,4.90
2018-12-07T12:45:40.348Z,3.50
2018-12-07T12:46:40.353Z,5.10
2018-12-07T12:47:40.342Z,5.20
2018-12-07T12:48:40.316Z,3.40
2018-12-07T12:49:40.306Z,3.80
2018-12-07T12:50:40.304Z,2.90
2018-12-07T12:51:40.334Z,3.30
2018-12-07T12:52:40.279Z,4.30
2018-12-07T12:53:40.266Z,2.90
2018-12-07T12:54:40.254Z,3.90
2018-12-07T12:55:40.245Z,2.80
2018-12-07T12:56:40.269Z,4.10
2018-12-07T12:57:40.224Z,5.50
2018-12-07T12:58:40.211Z,5.10
2018-12-07T12:59:40.197Z,6.10